VTBD/DMK METAR and TAF weather

Enter ICAO airport designator
Station Type Date Time Source
VTBD METAR 2022/12/10 02:00 UTC NOAA

VTBD 100200Z 05003KT 340V100 9999 FEW020 29/23 Q1012 NOSIG


Station Type Date Time Source
VTBD Decoded METAR 2022/12/10 02:00 UTC NOAA

Don Muang, Thailand (VTBD) 13-55N 100-36E 12M
Dec 09, 2022 - 09:00 PM EST / 2022.12.10 0200 UTC
Wind: from the NE (050 degrees) at 3 MPH (3 KT) (direction variable):0
Visibility: greater than 7 mile(s):0
Sky conditions: mostly clear
Temperature: 84 F (29 C)
Dew Point: 73 F (23 C)
Relative Humidity: 70%
Pressure (altimeter): 29.88 in. Hg (1012 hPa)
ob: VTBD 100200Z 05003KT 340V100 9999 FEW020 29/23 Q1012 NOSIG
cycle: 2

Station Type Date Time Source
VTBD TAF 2022/12/09 18:36 UTC NOAA

TAF TAF VTBD 091700Z 0918/1024 35005KT 9999 FEW020
BECMG 1001/1003 08005KT

Example: see airport list